createdAt,value
2022-09-01T00:04:00.590Z,21.5
2022-09-01T00:09:36.043Z,21.5
2022-09-01T00:15:10.803Z,21.5
2022-09-01T00:20:45.400Z,21.5
2022-09-01T00:26:20.209Z,21.5
2022-09-01T00:31:54.984Z,21.4
2022-09-01T00:37:29.811Z,21.4
2022-09-01T00:43:04.823Z,21.4
2022-09-01T00:48:40.557Z,21.4
2022-09-01T00:54:17.790Z,21.4
2022-09-01T00:59:53.985Z,21.4
2022-09-01T01:05:28.670Z,21.4
2022-09-01T01:11:03.702Z,21.4
2022-09-01T01:16:38.602Z,21.4
2022-09-01T01:22:15.271Z,21.4
2022-09-01T01:27:50.407Z,21.4
2022-09-01T01:33:25.486Z,21.4
2022-09-01T01:39:00.727Z,21.4
2022-09-01T01:44:36.500Z,21.4
2022-09-01T01:50:11.519Z,21.3
2022-09-01T01:55:47.541Z,21.3
2022-09-01T02:01:23.614Z,21.3
2022-09-01T02:06:59.910Z,21.3
2022-09-01T02:12:34.677Z,21.3
2022-09-01T02:18:10.852Z,21.3
2022-09-01T02:23:45.616Z,21.3
2022-09-01T02:29:43.274Z,21.3
2022-09-01T02:35:17.794Z,21.3
2022-09-01T02:40:52.594Z,21.3
2022-09-01T02:46:27.269Z,21.3
2022-09-01T02:52:03.423Z,21.3
2022-09-01T02:57:38.088Z,21.2
2022-09-01T03:03:14.893Z,21.2
2022-09-01T03:08:49.614Z,21.2
2022-09-01T03:14:24.393Z,21.2
2022-09-01T03:19:59.229Z,21.2
2022-09-01T03:25:34.133Z,21.2
2022-09-01T03:31:31.623Z,21.2
2022-09-01T03:37:06.403Z,21.1
2022-09-01T03:42:41.090Z,21.1
2022-09-01T03:48:16.022Z,21.1
2022-09-01T03:53:51.619Z,21.1
2022-09-01T03:59:26.475Z,21.1
2022-09-01T04:05:05.242Z,21
2022-09-01T04:10:44.350Z,21
2022-09-01T04:16:20.460Z,21
2022-09-01T04:21:55.903Z,21
2022-09-01T04:27:30.758Z,21
2022-09-01T04:33:05.751Z,21
2022-09-01T04:38:40.788Z,21
2022-09-01T04:44:15.603Z,21
2022-09-01T04:49:51.357Z,21
2022-09-01T04:55:26.172Z,21
2022-09-01T05:01:01.149Z,20.9
2022-09-01T05:06:37.215Z,20.9
2022-09-01T05:12:12.331Z,20.9
2022-09-01T05:17:51.198Z,20.8
2022-09-01T05:23:26.085Z,20.8
2022-09-01T05:29:22.673Z,20.8
2022-09-01T05:34:57.549Z,20.7
2022-09-01T05:40:32.539Z,20.7
2022-09-01T05:46:08.389Z,20.7
2022-09-01T05:51:45.582Z,20.7
2022-09-01T05:57:34.903Z,20.6
2022-09-01T06:03:10.540Z,20.6
2022-09-01T06:08:48.206Z,20.6
2022-09-01T06:14:24.171Z,20.6
2022-09-01T06:19:58.972Z,20.6
2022-09-01T06:25:33.779Z,20.7
2022-09-01T06:31:30.656Z,20.8
2022-09-01T06:37:04.167Z,20.8
2022-09-01T06:42:39.482Z,20.8
2022-09-01T06:48:14.290Z,20.8
2022-09-01T06:53:49.348Z,20.9
2022-09-01T06:59:28.325Z,20.9
2022-09-01T07:05:58.841Z,21
2022-09-01T07:57:08.936Z,21.4
2022-09-01T08:02:43.628Z,21.4
2022-09-01T08:08:21.039Z,21.5
2022-09-01T08:14:06.475Z,22.8
2022-09-01T08:19:42.279Z,23.5
2022-09-01T08:25:22.981Z,23.4
2022-09-01T08:31:22.262Z,23.5
2022-09-01T08:36:55.943Z,23.6
2022-09-01T08:42:31.885Z,24
2022-09-01T08:49:02.960Z,24.3
2022-09-01T08:55:05.960Z,24.9
2022-09-01T09:00:41.077Z,25
2022-09-01T09:06:15.901Z,25.3
2022-09-01T09:11:50.749Z,25.9
2022-09-01T09:17:26.521Z,26.1
2022-09-01T09:23:01.438Z,26
2022-09-01T09:29:00.636Z,25.4
2022-09-01T09:34:33.337Z,25.8
2022-09-01T09:40:10.083Z,26.1
2022-09-01T09:45:45.739Z,26
2022-09-01T09:51:23.312Z,26.8
2022-09-01T09:56:58.528Z,26.6
2022-09-01T10:02:33.621Z,26.5
2022-09-01T10:08:09.523Z,25.5
2022-09-01T10:13:45.092Z,24.6
2022-09-01T10:19:21.301Z,24.3
2022-09-01T10:24:56.536Z,24.2
2022-09-01T10:30:32.575Z,24.2
2022-09-01T10:36:09.426Z,24.2
2022-09-01T10:41:44.876Z,24.2
2022-09-01T10:47:21.109Z,24.2
2022-09-01T10:52:57.695Z,24.2
2022-09-01T11:05:33.384Z,24.3
2022-09-01T11:11:09.458Z,24.3
2022-09-01T11:16:46.200Z,24.4
2022-09-01T11:22:26.860Z,24.5
2022-09-01T11:28:24.422Z,24.6
2022-09-01T11:33:59.142Z,24.6
2022-09-01T11:39:37.240Z,24.6
2022-09-01T11:45:12.339Z,24.6
2022-09-01T11:50:57.079Z,24.7
2022-09-01T11:56:32.209Z,24.8
2022-09-01T12:02:08.308Z,24.9
2022-09-01T12:07:44.585Z,25
2022-09-01T12:13:19.937Z,25.1
2022-09-01T12:18:56.588Z,25.2
2022-09-01T12:24:31.399Z,25.2
2022-09-01T12:30:28.184Z,25.4
2022-09-01T12:36:02.751Z,25.5
2022-09-01T12:41:38.849Z,25.8
2022-09-01T12:47:14.988Z,26
2022-09-01T12:52:52.301Z,26.3
2022-09-01T12:58:27.671Z,26.5
2022-09-01T13:04:02.565Z,26.7
2022-09-01T13:09:37.415Z,26.9
2022-09-01T13:15:15.380Z,27.1
2022-09-01T13:20:50.909Z,27.3
2022-09-01T13:26:25.760Z,27.5
2022-09-01T13:38:06.991Z,27.5
2022-09-01T13:43:41.923Z,27.8
2022-09-01T13:56:03.411Z,28.4
2022-09-01T14:01:38.673Z,28.7
2022-09-01T14:07:13.751Z,28.9
2022-09-01T14:12:48.907Z,29.1
2022-09-01T14:18:24.825Z,29.3
2022-09-01T14:23:59.844Z,29.5
2022-09-01T14:29:36.001Z,29.7
2022-09-01T14:35:10.917Z,29.9
2022-09-01T14:40:45.814Z,30.1
2022-09-01T14:46:21.627Z,30.2
2022-09-01T14:52:13.149Z,30.3
2022-09-01T14:57:48.471Z,30.3
2022-09-01T15:03:23.958Z,30
2022-09-01T15:09:02.111Z,29.5
2022-09-01T15:14:37.154Z,29.1
2022-09-01T15:20:12.128Z,29
2022-09-01T15:25:46.795Z,28.8
2022-09-01T15:31:24.849Z,28.6
2022-09-01T15:37:08.783Z,28.5
2022-09-01T15:42:43.504Z,28.4
2022-09-01T15:48:18.473Z,28.4
2022-09-01T15:53:54.757Z,28.3
2022-09-01T15:59:30.834Z,28.2
2022-09-01T16:05:09.109Z,28.1
2022-09-01T16:10:45.928Z,28
2022-09-01T16:16:35.298Z,28
2022-09-01T16:22:22.250Z,27.9
2022-09-01T16:28:18.897Z,27.9
2022-09-01T16:33:52.389Z,27.9
2022-09-01T16:39:27.560Z,27.8
2022-09-01T16:45:02.698Z,27.6
2022-09-01T16:50:37.855Z,27.5
2022-09-01T16:56:12.554Z,27.4
2022-09-01T17:01:47.494Z,27.3
2022-09-01T17:07:24.109Z,27.2
2022-09-01T17:13:04.548Z,27.1
2022-09-01T17:18:39.344Z,27
2022-09-01T17:24:14.363Z,26.9
2022-09-01T17:30:10.888Z,26.9
2022-09-01T17:35:43.519Z,26.7
2022-09-01T17:41:19.468Z,26.6
2022-09-01T17:46:54.408Z,26.3
2022-09-01T17:52:29.920Z,26.2
2022-09-01T18:05:06.506Z,25.8
2022-09-01T18:10:40.090Z,25.4
2022-09-01T18:16:14.905Z,25
2022-09-01T18:21:51.445Z,24.7
2022-09-01T18:27:30.124Z,24.5
2022-09-01T18:33:08.786Z,24.3
2022-09-01T18:38:44.250Z,24.2
2022-09-01T18:44:21.104Z,24.1
2022-09-01T18:50:01.156Z,23.9
2022-09-01T18:55:36.391Z,23.8
2022-09-01T19:01:12.498Z,23.8
2022-09-01T19:06:50.950Z,23.8
2022-09-01T19:12:25.667Z,23.8
2022-09-01T19:18:01.405Z,23.7
2022-09-01T19:23:37.662Z,23.6
2022-09-01T19:29:12.505Z,23.5
2022-09-01T19:34:47.296Z,23.5
2022-09-01T19:40:25.011Z,23.6
2022-09-01T19:46:03.303Z,23.6
2022-09-01T19:51:39.789Z,23.5
2022-09-01T19:57:15.502Z,23.4
2022-09-01T20:03:12.409Z,23.4
2022-09-01T20:08:47.472Z,23.4
2022-09-01T20:14:22.245Z,23.4
2022-09-01T20:19:57.237Z,23.3
2022-09-01T20:25:33.644Z,23.2
2022-09-01T20:31:08.605Z,23
2022-09-01T20:36:44.384Z,23
2022-09-01T20:42:19.075Z,23
2022-09-01T20:47:54.018Z,22.8
2022-09-01T20:53:32.872Z,22.8
2022-09-01T20:59:07.764Z,22.7
2022-09-01T21:05:04.399Z,23.1
2022-09-01T21:10:37.101Z,23.2
2022-09-01T21:16:11.808Z,23.2
2022-09-01T21:21:48.639Z,23.3
2022-09-01T21:27:23.644Z,23.3
2022-09-01T21:32:58.458Z,23.3
2022-09-01T21:38:33.272Z,23.3
2022-09-01T21:44:08.233Z,23.2
2022-09-01T21:49:43.121Z,23.2
2022-09-01T21:55:22.143Z,23.2
2022-09-01T22:00:58.086Z,23.2
2022-09-01T22:06:34.029Z,23.2
2022-09-01T22:12:09.659Z,23.1
2022-09-01T22:17:44.473Z,23.1
2022-09-01T22:23:19.703Z,23
2022-09-01T22:28:55.683Z,22.9
2022-09-01T22:34:30.471Z,22.9
2022-09-01T22:40:05.706Z,22.9
2022-09-01T22:45:41.495Z,22.9
2022-09-01T22:51:17.384Z,22.9
2022-09-01T22:56:54.347Z,22.9
2022-09-01T23:02:55.976Z,22.8
2022-09-01T23:08:28.673Z,22.8
2022-09-01T23:14:03.874Z,22.8
2022-09-01T23:19:39.779Z,22.7
2022-09-01T23:25:14.555Z,22.6
2022-09-01T23:30:49.764Z,22.6
2022-09-01T23:36:24.649Z,22.5
2022-09-01T23:42:00.140Z,22.5
2022-09-01T23:47:35.149Z,22.5
2022-09-01T23:53:10.941Z,22.5
2022-09-01T23:58:45.898Z,22.5
